Time;durP1;ratioP1;P1;durP2;ratioP2;P2;SDS_P1;SDS_P2;PMS_P1;PMS_P2;Temp;Humidity;BMP_temperature;BMP_pressure;BME280_temperature;BME280_humidity;BME280_pressure;Samples;Min_cycle;Max_cycle;Signal;HPM_P1;HPM_P2
2022/05/27 00:01:54;;;;;;;3.70;3.00;;;;;;;16.27;59.77;99374.66;1655104;86;21021;-74
2022/05/27 00:04:21;;;;;;;3.67;2.58;;;;;;;16.25;59.95;99356.52;1606790;88;21083;-73
2022/05/27 00:06:47;;;;;;;3.72;3.02;;;;;;;16.26;59.94;99372.26;1619364;86;21100;-71
2022/05/27 00:09:13;;;;;;;3.37;2.90;;;;;;;16.25;60.09;99388.28;1638726;87;20933;-72
2022/05/27 00:11:40;;;;;;;3.30;2.90;;;;;;;16.24;60.28;99372.55;1645781;85;21067;-75
2022/05/27 00:14:07;;;;;;;3.85;2.55;;;;;;;16.23;60.37;99365.50;1637796;85;21025;-75
2022/05/27 00:16:34;;;;;;;4.60;3.42;;;;;;;16.22;60.51;99369.85;1619324;88;21524;-80
2022/05/27 00:19:00;;;;;;;4.83;3.25;;;;;;;16.21;60.74;99373.69;1581257;90;21922;-77
2022/05/27 00:21:27;;;;;;;4.85;2.72;;;;;;;16.19;60.79;99363.13;1581233;90;21011;-80
2022/05/27 00:23:54;;;;;;;4.75;3.08;;;;;;;16.19;60.97;99366.38;1582799;88;21631;-78
2022/05/27 00:26:20;;;;;;;3.83;2.75;;;;;;;16.18;61.19;99366.93;1581285;89;21582;-83
2022/05/27 00:28:47;;;;;;;3.42;2.77;;;;;;;16.17;61.24;99361.79;1581262;88;21100;-81
2022/05/27 00:31:18;;;;;;;9.03;2.95;;;;;;;16.17;61.34;99369.93;1581527;90;21549;-78
2022/05/27 00:33:41;;;;;;;6.47;3.00;;;;;;;16.16;61.44;99366.98;1581212;88;21119;-84
2022/05/27 00:36:09;;;;;;;5.90;3.20;;;;;;;16.13;61.49;99367.81;1577198;90;21115;-81
2022/05/27 00:38:40;;;;;;;6.40;3.00;;;;;;;16.12;61.72;99372.98;1581494;88;20990;-89
2022/05/27 00:41:08;;;;;;;9.10;3.02;;;;;;;16.11;61.89;99373.29;1603887;89;21041;-83
2022/05/27 00:43:36;;;;;;;4.75;2.50;;;;;;;16.10;61.93;99375.74;1584073;89;21861;-83
2022/05/27 00:46:21;;;;;;;2.67;2.47;;;;;;;16.10;62.10;99370.31;1581596;89;21061;-81
2022/05/27 00:48:52;;;;;;;5.65;2.87;;;;;;;16.08;62.23;99380.09;1581436;89;21010;-79
2022/05/27 00:51:22;;;;;;;4.03;2.35;;;;;;;16.08;62.42;99395.56;1580801;89;21175;-78
2022/05/27 00:54:09;;;;;;;2.67;2.47;;;;;;;16.06;62.49;99397.78;1580254;90;21525;-78
2022/05/27 00:56:39;;;;;;;2.77;2.55;;;;;;;16.04;62.62;99395.89;1604791;88;21242;-79
2022/05/27 00:59:13;;;;;;;2.52;2.33;;;;;;;16.01;62.82;99390.52;1591707;90;21003;-78
2022/05/27 01:01:41;;;;;;;3.55;3.25;;;;;;;15.99;63.00;99394.61;1592050;90;21103;-77
2022/05/27 01:04:08;;;;;;;3.30;2.52;;;;;;;15.98;63.25;99398.41;1592668;90;21030;-83
2022/05/27 01:06:34;;;;;;;3.27;2.95;;;;;;;15.97;63.27;99390.05;1585998;88;21069;-82
2022/05/27 01:09:02;;;;;;;4.28;2.92;;;;;;;15.94;63.49;99394.13;1594540;90;21163;-75
2022/05/27 01:12:07;;;;;;;5.72;3.40;;;;;;;15.93;63.54;99395.77;1594524;88;21094;-75
2022/05/27 01:14:57;;;;;;;3.70;3.35;;;;;;;15.92;63.78;99410.45;1601153;87;21087;-75
2022/05/27 01:17:47;;;;;;;5.80;3.20;;;;;;;15.88;64.01;99403.97;1588820;90;21061;-74
2022/05/27 01:20:48;;;;;;;5.20;3.15;;;;;;;15.84;64.21;99417.31;1594581;88;21043;-77
2022/05/27 01:23:52;;;;;;;7.20;3.47;;;;;;;15.80;64.65;99412.77;1597831;88;21589;-78
2022/05/27 01:27:02;;;;;;;5.15;3.27;;;;;;;15.77;64.81;99412.00;1570752;89;21520;-81
2022/05/27 01:30:00;;;;;;;3.50;2.65;;;;;;;15.69;65.21;99406.11;1624735;87;21032;-79
2022/05/27 01:32:41;;;;;;;3.80;2.90;;;;;;;15.64;65.45;99412.95;1638101;87;21067;-81
2022/05/27 01:35:28;;;;;;;6.17;3.47;;;;;;;15.60;65.87;99414.63;1651122;86;21029;-78
2022/05/27 01:37:59;;;;;;;6.00;3.67;;;;;;;15.57;65.94;99416.57;1664968;84;21176;-77
2022/05/27 01:40:39;;;;;;;6.97;3.22;;;;;;;15.53;66.29;99427.73;1636466;87;21589;-77
2022/05/27 01:43:17;;;;;;;6.33;4.80;;;;;;;15.51;66.53;99410.13;1636673;86;21042;-78
2022/05/27 01:45:55;;;;;;;5.15;3.15;;;;;;;15.46;66.84;99408.26;1636494;87;21031;-78
2022/05/27 01:48:36;;;;;;;4.50;3.25;;;;;;;15.43;67.07;99410.75;1640130;84;21074;-77
2022/05/27 01:51:26;;;;;;;6.87;5.05;;;;;;;15.38;67.31;99416.22;1665152;86;22166;-79
2022/05/27 01:54:04;;;;;;;5.15;4.53;;;;;;;15.34;67.60;99431.45;1665452;86;21086;-76
2022/05/27 01:56:39;;;;;;;5.70;3.80;;;;;;;15.29;67.84;99426.89;1639352;85;21048;-75
2022/05/27 01:59:13;;;;;;;9.58;4.03;;;;;;;15.26;68.05;99432.86;1617215;86;21701;-78
2022/05/27 02:01:45;;;;;;;6.47;3.58;;;;;;;15.25;68.48;99440.18;1653662;86;21028;-79
2022/05/27 02:04:36;;;;;;;5.55;4.05;;;;;;;15.21;68.73;99420.72;1653853;86;21366;-78
2022/05/27 02:07:14;;;;;;;10.82;4.60;;;;;;;15.19;68.85;99421.57;1644391;86;21059;-79
2022/05/27 02:09:47;;;;;;;4.80;3.85;;;;;;;15.17;68.95;99412.91;1651860;86;20972;-78
2022/05/27 02:12:25;;;;;;;5.67;3.47;;;;;;;15.12;69.06;99424.61;1646571;86;21085;-75
2022/05/27 02:14:56;;;;;;;4.12;3.30;;;;;;;15.11;68.99;99424.88;1622229;88;21039;-76
2022/05/27 02:17:31;;;;;;;5.53;4.10;;;;;;;15.07;68.82;99435.48;1600534;88;21290;-72
2022/05/27 02:20:09;;;;;;;5.45;3.95;;;;;;;15.03;68.80;99440.41;1651414;86;21008;-77
2022/05/27 02:22:45;;;;;;;4.95;2.67;;;;;;;14.99;68.82;99448.30;1634029;86;21505;-76
2022/05/27 02:25:24;;;;;;;7.03;3.52;;;;;;;14.96;68.91;99446.17;1627293;87;22211;-77
2022/05/27 02:28:11;;;;;;;3.40;2.80;;;;;;;14.92;69.05;99443.75;1602451;88;21237;-77
2022/05/27 02:30:40;;;;;;;5.53;3.25;;;;;;;14.86;69.23;99473.34;1586297;90;22389;-77
2022/05/27 02:35:59;;;;;;;2.80;2.12;;;;;;;14.77;69.48;99447.39;1611671;89;21069;-78
2022/05/27 02:38:27;;;;;;;3.00;2.08;;;;;;;14.76;69.74;99449.05;1602227;89;21030;-76
2022/05/27 02:41:32;;;;;;;4.37;2.47;;;;;;;14.75;69.80;99450.94;1602763;89;21148;-76
2022/05/27 02:44:11;;;;;;;4.12;2.10;;;;;;;14.79;69.75;99457.94;1561344;91;21782;-76
2022/05/27 02:46:49;;;;;;;2.00;1.90;;;;;;;14.82;69.53;99462.24;1562585;91;21026;-78
2022/05/27 02:49:31;;;;;;;2.40;2.20;;;;;;;14.85;69.27;99469.00;1579303;89;21049;-80
2022/05/27 02:52:28;;;;;;;7.58;3.55;;;;;;;14.86;69.04;99484.17;1623594;88;21016;-83
2022/05/27 02:55:17;;;;;;;4.55;2.30;;;;;;;14.87;68.96;99461.96;1621927;88;21111;-81
2022/05/27 02:57:49;;;;;;;3.22;2.30;;;;;;;14.86;69.03;99477.94;1629811;86;21185;-79
2022/05/27 03:00:22;;;;;;;3.80;2.20;;;;;;;14.86;69.13;99486.06;1663884;86;20967;-81
2022/05/27 03:02:49;;;;;;;2.90;2.60;;;;;;;14.86;69.20;99477.94;1645954;84;24987;-80
2022/05/27 03:05:18;;;;;;;3.85;2.30;;;;;;;14.86;69.36;99478.75;1610012;89;21040;-82
2022/05/27 03:08:05;;;;;;;3.35;2.35;;;;;;;14.86;69.47;99474.69;1610135;87;21043;-78
2022/05/27 03:10:52;;;;;;;6.08;2.30;;;;;;;14.84;69.62;99473.61;1657317;86;22261;-76
2022/05/27 03:13:53;;;;;;;3.25;2.75;;;;;;;14.85;69.81;99475.77;1644023;86;20963;-76
2022/05/27 03:16:51;;;;;;;2.98;2.27;;;;;;;14.83;69.96;99480.11;1669118;86;21047;-76
2022/05/27 03:19:32;;;;;;;3.35;2.17;;;;;;;14.84;70.10;99479.02;1651770;85;21043;-75
2022/05/27 03:22:13;;;;;;;4.70;2.40;;;;;;;14.87;70.29;99487.11;1610170;89;21027;-78
2022/05/27 03:25:04;;;;;;;4.72;2.70;;;;;;;14.93;70.44;99479.77;1609884;87;21160;-81
2022/05/27 03:27:42;;;;;;;2.75;2.35;;;;;;;14.96;70.74;99481.38;1584423;90;21118;-82
2022/05/27 03:30:19;;;;;;;4.42;2.52;;;;;;;14.99;70.80;99482.16;1645464;86;21551;-79
2022/05/27 03:33:09;;;;;;;4.58;2.90;;;;;;;15.00;71.19;99487.03;1670405;84;21108;-81
2022/05/27 03:35:51;;;;;;;5.55;3.25;;;;;;;14.98;71.49;99500.03;1643070;87;21050;-82
2022/05/27 03:38:28;;;;;;;5.30;3.17;;;;;;;14.96;71.67;99488.70;1643107;87;21204;-78
2022/05/27 03:41:09;;;;;;;5.50;3.75;;;;;;;14.95;71.91;99492.48;1641464;86;20985;-78
2022/05/27 03:43:36;;;;;;;6.40;3.80;;;;;;;14.94;72.17;99480.03;1615499;88;21072;-79
2022/05/27 03:46:02;;;;;;;4.85;3.33;;;;;;;14.94;72.54;99490.86;1615391;88;21359;-78
2022/05/27 03:48:31;;;;;;;8.60;3.45;;;;;;;14.93;72.62;99469.73;1619084;87;21592;-77
2022/05/27 03:51:07;;;;;;;6.55;4.40;;;;;;;14.96;72.78;99477.86;1610223;89;21186;-77
2022/05/27 03:56:18;;;;;;;5.55;3.45;;;;;;;15.03;73.03;99469.66;1642499;86;21511;-78
2022/05/27 03:58:45;;;;;;;4.72;3.27;;;;;;;15.08;73.07;99478.28;1619507;88;21165;-79
2022/05/27 04:01:13;;;;;;;4.08;3.15;;;;;;;15.08;73.15;99483.70;1607384;88;21092;-79
2022/05/27 04:03:39;;;;;;;5.65;3.20;;;;;;;15.07;73.19;99473.41;1555778;90;21297;-79
2022/05/27 04:06:05;;;;;;;5.05;2.85;;;;;;;15.06;73.40;99479.91;1580917;90;21014;-79
2022/05/27 04:08:32;;;;;;;4.40;2.87;;;;;;;15.06;73.57;99485.33;1580747;89;21536;-77
2022/05/27 04:11:00;;;;;;;5.17;2.25;;;;;;;15.05;73.75;99482.92;1582595;89;20988;-77
2022/05/27 04:13:28;;;;;;;4.30;2.40;;;;;;;15.05;73.96;99476.97;1601418;89;21114;-76
2022/05/27 04:15:54;;;;;;;4.58;2.25;;;;;;;15.04;74.20;99488.08;1610205;89;21610;-77
2022/05/27 04:18:21;;;;;;;2.40;2.15;;;;;;;15.05;74.35;99485.09;1606830;88;21120;-77
2022/05/27 04:20:48;;;;;;;2.22;2.02;;;;;;;15.07;74.36;99483.44;1606526;89;21117;-80
2022/05/27 04:23:16;;;;;;;3.17;1.92;;;;;;;15.11;74.32;99481.23;1605962;89;21073;-78
2022/05/27 04:25:48;;;;;;;4.30;3.17;;;;;;;15.16;74.21;99486.59;1578309;89;21090;-79
2022/05/27 04:28:16;;;;;;;2.87;2.22;;;;;;;15.22;73.37;99493.59;1580139;90;21140;-78
2022/05/27 04:30:45;;;;;;;3.85;2.05;;;;;;;15.26;72.69;99510.08;1602775;89;21566;-77
2022/05/27 04:33:13;;;;;;;4.58;1.90;;;;;;;15.30;72.25;99494.09;1572075;90;21020;-77
2022/05/27 04:35:40;;;;;;;1.70;1.60;;;;;;;15.34;72.00;99495.94;1591240;90;21044;-77
2022/05/27 04:38:08;;;;;;;5.40;2.47;;;;;;;15.38;71.21;99502.40;1586738;89;21049;-78
2022/05/27 04:40:35;;;;;;;2.12;1.90;;;;;;;15.43;70.39;99493.41;1585051;89;21609;-78
2022/05/27 04:43:05;;;;;;;6.78;1.80;;;;;;;15.46;69.91;99486.86;1580254;90;21530;-79
2022/05/27 04:45:33;;;;;;;2.30;1.70;;;;;;;15.48;64.20;99504.20;1557521;90;21109;-80
2022/05/27 04:48:00;;;;;;;4.75;3.10;;;;;;;15.53;65.68;99496.86;1580019;89;21080;-78
2022/05/27 04:50:27;;;;;;;5.83;1.90;;;;;;;15.56;63.74;99498.17;1589629;89;21584;-79
2022/05/27 04:52:54;;;;;;;2.87;1.77;;;;;;;15.58;62.94;99491.39;1563903;89;21605;-79
2022/05/27 04:55:22;;;;;;;3.15;1.80;;;;;;;15.61;63.75;99481.31;1584891;88;21555;-78
2022/05/27 04:57:52;;;;;;;4.75;2.40;;;;;;;15.66;64.00;99479.91;1596122;87;21229;-76
2022/05/27 05:00:23;;;;;;;3.12;2.05;;;;;;;15.73;64.28;99490.38;1606613;89;21012;-78
2022/05/27 05:02:50;;;;;;;3.47;1.82;;;;;;;15.79;64.32;99487.88;1605742;89;21085;-81
2022/05/27 05:05:20;;;;;;;7.20;1.35;;;;;;;15.84;64.49;99489.73;1605135;88;21304;-76
2022/05/27 05:07:51;;;;;;;2.08;1.50;;;;;;;15.89;64.32;99491.84;1603371;88;21040;-76
2022/05/27 05:10:21;;;;;;;1.77;1.52;;;;;;;15.95;64.04;99498.02;1614284;87;21019;-76
2022/05/27 05:12:49;;;;;;;1.82;1.62;;;;;;;16.01;63.31;99507.72;1626679;87;21110;-75
2022/05/27 05:15:16;;;;;;;1.57;1.40;;;;;;;16.04;62.55;99497.63;1607887;89;21616;-76
2022/05/27 05:17:43;;;;;;;2.95;1.80;;;;;;;16.08;60.50;99514.94;1609805;87;21581;-78
2022/05/27 05:20:12;;;;;;;3.35;2.22;;;;;;;16.12;60.10;99487.48;1634113;87;20926;-77
2022/05/27 05:22:38;;;;;;;2.05;1.65;;;;;;;16.16;60.74;99491.80;1634279;87;21112;-76
2022/05/27 05:25:08;;;;;;;3.27;1.55;;;;;;;16.19;60.73;99491.20;1617089;87;21498;-78
2022/05/27 05:27:38;;;;;;;1.50;1.40;;;;;;;16.22;59.75;99485.18;1585281;89;21080;-80
2022/05/27 05:30:08;;;;;;;3.55;2.10;;;;;;;16.27;59.80;99487.83;1608427;89;21130;-79
2022/05/27 05:32:36;;;;;;;2.83;1.50;;;;;;;16.34;59.77;99491.00;1584862;89;20969;-76
2022/05/27 05:35:05;;;;;;;1.70;1.60;;;;;;;16.42;59.52;99483.01;1620135;87;21126;-77
2022/05/27 05:37:32;;;;;;;1.70;1.60;;;;;;;16.45;58.42;99490.55;1582814;90;21068;-76
2022/05/27 05:39:58;;;;;;;2.47;1.60;;;;;;;16.50;58.10;99482.34;1608728;87;21107;-75
2022/05/27 05:42:25;;;;;;;3.27;1.75;;;;;;;16.54;58.32;99495.61;1608156;89;21180;-83
2022/05/27 05:44:52;;;;;;;2.80;1.75;;;;;;;16.51;58.82;99498.89;1610768;88;20972;-77
2022/05/27 05:47:18;;;;;;;2.55;1.85;;;;;;;16.56;59.43;99507.52;1609537;87;21017;-78
2022/05/27 05:49:44;;;;;;;3.27;2.00;;;;;;;16.61;59.93;99507.47;1605161;87;21682;-78
2022/05/27 05:52:11;;;;;;;3.62;1.72;;;;;;;16.66;60.57;99510.66;1603556;88;21095;-77
2022/05/27 05:54:37;;;;;;;2.75;1.50;;;;;;;16.71;61.12;99505.16;1607452;87;21173;-78
2022/05/27 05:57:05;;;;;;;1.70;1.60;;;;;;;16.75;61.92;99512.42;1608343;87;21008;-77
2022/05/27 05:59:35;;;;;;;5.22;2.17;;;;;;;16.76;62.11;99501.81;1615291;87;21096;-77
2022/05/27 06:02:03;;;;;;;2.27;1.60;;;;;;;16.77;61.78;99493.94;1639263;87;21092;-76
2022/05/27 06:04:29;;;;;;;2.67;2.00;;;;;;;16.78;62.11;99484.69;1610653;87;21124;-76
2022/05/27 06:06:57;;;;;;;3.75;1.92;;;;;;;16.81;62.05;99489.52;1636579;87;21108;-76
2022/05/27 06:09:28;;;;;;;6.45;1.75;;;;;;;16.86;60.68;99496.23;1639536;86;21084;-76
2022/05/27 06:12:01;;;;;;;2.47;1.75;;;;;;;16.91;60.74;99494.80;1640293;86;20979;-75
2022/05/27 06:14:28;;;;;;;2.50;1.80;;;;;;;16.95;60.68;99494.45;1640536;87;28585;-73
2022/05/27 06:16:54;;;;;;;11.20;4.70;;;;;;;17.00;60.97;99488.94;1638779;86;21078;-75
2022/05/27 06:19:21;;;;;;;2.95;2.20;;;;;;;17.03;60.67;99497.58;1636698;87;21158;-74
2022/05/27 06:21:48;;;;;;;3.72;2.08;;;;;;;17.00;60.48;99501.16;1610395;87;21007;-75
2022/05/27 06:24:15;;;;;;;5.05;2.02;;;;;;;17.00;59.54;99483.50;1636426;87;20979;-74
2022/05/27 06:26:41;;;;;;;2.98;2.12;;;;;;;17.03;59.61;99482.09;1638712;85;21012;-75
2022/05/27 06:34:39;;;;;;;2.72;2.22;;;;;;;17.06;58.65;99491.58;1615384;88;21021;-76
2022/05/27 06:37:10;;;;;;;4.62;1.95;;;;;;;17.09;58.24;99503.20;1584972;90;21099;-76
2022/05/27 06:39:37;;;;;;;7.97;1.98;;;;;;;17.13;58.08;99482.47;1633625;87;21104;-77
2022/05/27 06:42:08;;;;;;;1.90;1.80;;;;;;;17.17;58.01;99488.37;1656192;86;21047;-78
2022/05/27 06:44:37;;;;;;;6.20;1.67;;;;;;;17.21;57.63;99484.53;1640673;87;21803;-77
2022/05/27 06:47:06;;;;;;;6.90;1.67;;;;;;;17.21;57.53;99483.98;1638745;86;21012;-80
2022/05/27 06:49:34;;;;;;;2.10;1.90;;;;;;;17.21;57.46;99492.68;1647147;86;21103;-80
2022/05/27 06:52:01;;;;;;;5.30;4.35;;;;;;;17.19;57.03;99475.30;1669239;86;21535;-79
2022/05/27 06:54:28;;;;;;;6.35;2.25;;;;;;;17.17;56.94;99476.14;1668934;86;21023;-77
2022/05/27 06:56:54;;;;;;;3.80;2.05;;;;;;;17.15;56.61;99463.42;1654152;85;21491;-79
2022/05/27 06:59:22;;;;;;;3.35;1.98;;;;;;;17.18;57.26;99458.73;1627125;87;21062;-81
2022/05/27 07:01:49;;;;;;;2.00;1.75;;;;;;;17.20;55.78;99467.41;1620457;87;21565;-80
2022/05/27 07:04:17;;;;;;;3.22;1.77;;;;;;;17.18;56.03;99479.12;1639359;86;21020;-83
2022/05/27 07:06:46;;;;;;;7.72;1.95;;;;;;;17.17;56.02;99480.80;1639487;87;21044;-78
2022/05/27 07:09:16;;;;;;;1.62;1.25;;;;;;;17.16;56.18;99460.96;1638226;87;21569;-80
2022/05/27 07:11:47;;;;;;;2.20;1.70;;;;;;;17.17;56.02;99457.69;1621854;87;21005;-75
2022/05/27 07:14:15;;;;;;;3.40;1.50;;;;;;;17.21;56.52;99443.20;1612602;87;21039;-77
2022/05/27 07:16:43;;;;;;;2.27;1.70;;;;;;;17.26;55.71;99463.50;1621655;86;21131;-77
2022/05/27 07:19:09;;;;;;;4.12;1.87;;;;;;;17.32;54.90;99447.33;1617493;87;21208;-79
2022/05/27 07:21:39;;;;;;;2.52;1.47;;;;;;;17.38;54.44;99444.78;1610004;88;21600;-78
2022/05/27 07:24:09;;;;;;;8.13;1.67;;;;;;;17.41;53.42;99463.75;1611678;87;20995;-78
2022/05/27 07:26:37;;;;;;;4.67;1.55;;;;;;;17.42;52.99;99463.46;1609519;87;22279;-79
2022/05/27 07:29:06;;;;;;;4.42;1.80;;;;;;;17.42;53.08;99435.47;1610896;87;21083;-80
2022/05/27 07:31:34;;;;;;;4.62;1.85;;;;;;;17.46;52.73;99432.97;1606589;89;21033;-79
2022/05/27 07:34:02;;;;;;;2.25;1.50;;;;;;;17.52;52.00;99421.67;1607902;87;21227;-78
2022/05/27 07:36:28;;;;;;;2.27;1.47;;;;;;;17.56;51.24;99418.60;1607467;87;21037;-78
2022/05/27 07:38:55;;;;;;;4.17;1.90;;;;;;;17.63;51.29;99422.31;1607601;88;21179;-78
2022/05/27 07:41:22;;;;;;;2.15;1.35;;;;;;;17.69;51.89;99420.56;1615799;87;21256;-77
2022/05/27 07:43:50;;;;;;;2.58;1.60;;;;;;;17.75;50.94;99422.59;1614928;88;21080;-75
2022/05/27 07:46:17;;;;;;;3.35;1.52;;;;;;;17.82;50.40;99414.30;1619515;87;21274;-76
2022/05/27 07:48:44;;;;;;;2.30;1.45;;;;;;;17.90;49.46;99437.80;1617141;87;21141;-76
2022/05/27 07:51:10;;;;;;;3.27;1.40;;;;;;;17.93;49.47;99424.42;1609237;87;21015;-73
2022/05/27 07:53:38;;;;;;;3.22;1.20;;;;;;;17.99;49.73;99423.73;1607401;89;21055;-78
2022/05/27 07:56:06;;;;;;;4.72;1.52;;;;;;;18.04;45.94;99425.80;1607523;89;21044;-77
2022/05/27 07:58:33;;;;;;;6.85;1.65;;;;;;;18.10;46.96;99489.09;1622573;87;21179;-78
2022/05/27 08:01:00;;;;;;;6.12;1.60;;;;;;;18.15;45.35;99404.61;1613844;87;21146;-79
2022/05/27 08:03:27;;;;;;;6.83;3.05;;;;;;;18.19;46.50;99404.23;1610065;89;21024;-88
2022/05/27 08:05:57;;;;;;;2.02;1.42;;;;;;;18.28;46.81;99405.92;1618908;87;21078;-88
2022/05/27 08:08:23;;;;;;;2.85;1.45;;;;;;;18.40;46.12;99424.45;1658291;85;22279;-86
2022/05/27 08:10:50;;;;;;;4.30;1.50;;;;;;;18.46;45.89;99420.51;1642098;87;21146;-91
2022/05/27 08:13:17;;;;;;;4.20;1.77;;;;;;;18.50;45.59;99420.14;1641825;87;21021;-90
2022/05/27 08:15:43;;;;;;;1.45;1.30;;;;;;;18.56;45.44;99412.10;1641893;85;21091;-85
2022/05/27 08:18:11;;;;;;;4.30;1.70;;;;;;;18.63;45.47;99404.31;1641580;85;21344;-89
2022/05/27 08:20:39;;;;;;;10.90;2.40;;;;;;;18.76;45.41;99437.24;1642011;87;20975;-89
2022/05/27 08:23:06;;;;;;;5.05;1.85;;;;;;;18.84;45.43;99408.72;1610707;87;21389;-88
2022/05/27 08:25:33;;;;;;;2.90;1.42;;;;;;;18.94;45.38;99409.02;1639237;87;21620;-83
2022/05/27 08:28:00;;;;;;;1.90;1.52;;;;;;;19.07;45.51;99415.74;1662418;86;22498;-93
2022/05/27 08:30:29;;;;;;;2.72;1.32;;;;;;;19.19;45.16;99411.05;1663220;84;21054;-91
2022/05/27 08:32:57;;;;;;;2.40;1.25;;;;;;;19.28;44.51;99407.81;1651416;86;21099;-86
2022/05/27 08:38:14;;;;;;;9.08;1.90;;;;;;;19.40;44.10;99404.50;1650014;86;21039;-89
2022/05/27 08:41:08;;;;;;;2.87;2.10;;;;;;;19.43;43.10;99416.94;1656416;86;21553;-88
2022/05/27 08:44:15;;;;;;;1.82;1.42;;;;;;;19.49;43.10;99393.90;1639681;87;21042;-85
2022/05/27 08:47:11;;;;;;;4.33;1.47;;;;;;;19.57;43.19;99405.95;1638697;86;21095;-85
2022/05/27 08:49:43;;;;;;;1.77;1.12;;;;;;;19.67;42.29;99410.31;1643440;86;22156;-86
2022/05/27 08:52:27;;;;;;;3.10;1.45;;;;;;;19.72;42.05;99419.16;1644409;86;20944;-85
2022/05/27 08:55:02;;;;;;;3.30;1.70;;;;;;;19.77;41.76;99381.38;1666936;86;21031;-89
2022/05/27 09:00:17;;;;;;;3.77;1.50;;;;;;;19.89;41.63;99391.13;1613560;87;21679;-80
2022/05/27 09:02:56;;;;;;;2.08;1.20;;;;;;;19.97;41.38;99394.42;1642730;87;21878;-86
2022/05/27 09:05:31;;;;;;;8.13;1.30;;;;;;;20.03;41.38;99408.97;1654473;86;20976;-84
2022/05/27 09:08:19;;;;;;;1.90;1.30;;;;;;;20.04;40.69;99402.95;1652070;86;20975;-89
2022/05/27 09:11:07;;;;;;;5.10;1.37;;;;;;;20.05;41.16;99395.57;1639113;87;21032;-88
2022/05/27 09:14:13;;;;;;;1.35;1.20;;;;;;;20.09;40.98;99408.27;1613409;89;21081;-92
2022/05/27 09:16:51;;;;;;;3.47;1.40;;;;;;;20.14;40.79;99409.48;1630608;87;21112;-86
2022/05/27 09:19:38;;;;;;;3.37;1.40;;;;;;;20.23;40.75;99398.55;1605108;87;21078;-80
2022/05/27 09:22:33;;;;;;;2.52;1.40;;;;;;;20.25;40.76;99384.00;1581409;90;21084;-92
2022/05/27 09:25:32;;;;;;;7.45;1.65;;;;;;;20.24;40.64;99424.75;1636922;86;21080;-84
2022/05/27 09:28:30;;;;;;;8.10;2.10;;;;;;;20.20;40.46;99380.06;1639229;87;21592;-78
2022/05/27 09:30:57;;;;;;;5.53;2.08;;;;;;;20.19;40.84;99386.67;1592358;89;21863;-81
2022/05/27 09:33:26;;;;;;;2.67;1.20;;;;;;;20.24;40.60;99383.78;1605941;89;21043;-79
2022/05/27 09:36:03;;;;;;;3.20;1.70;;;;;;;20.33;40.85;99374.50;1609932;87;21096;-79
2022/05/27 09:38:34;;;;;;;3.55;1.27;;;;;;;20.43;40.36;99396.59;1639145;87;21159;-82
2022/05/27 09:41:26;;;;;;;4.00;1.07;;;;;;;20.54;40.28;99421.07;1637484;87;21086;-82
2022/05/27 09:44:30;;;;;;;4.37;1.37;;;;;;;20.60;40.20;99384.83;1529154;93;21133;-80
2022/05/27 09:46:57;;;;;;;4.60;1.70;;;;;;;20.60;39.71;99378.80;1582125;90;21031;-84
2022/05/27 09:49:24;;;;;;;3.35;1.57;;;;;;;20.61;39.88;99395.44;1630036;86;21066;-86
2022/05/27 09:51:51;;;;;;;1.85;1.37;;;;;;;20.63;39.61;99377.34;1650191;86;21032;-79
2022/05/27 09:54:35;;;;;;;2.20;1.37;;;;;;;20.62;39.75;99386.13;1655943;86;21050;-82
2022/05/27 09:57:14;;;;;;;2.17;1.67;;;;;;;20.63;39.50;99363.11;1637967;87;21581;-86
2022/05/27 09:59:47;;;;;;;3.85;1.98;;;;;;;20.64;39.68;99351.06;1609375;87;20970;-75
2022/05/27 10:02:30;;;;;;;1.92;1.67;;;;;;;20.73;39.86;99339.55;1649246;86;21071;-73
2022/05/27 10:05:14;;;;;;;3.20;1.72;;;;;;;20.83;39.99;99331.00;1578642;91;21040;-76
2022/05/27 10:07:52;;;;;;;3.85;1.47;;;;;;;20.95;39.61;99352.77;1611536;89;21100;-76
2022/05/27 10:10:32;;;;;;;2.87;1.77;;;;;;;21.00;39.34;99335.63;1599590;87;21154;-79
2022/05/27 10:13:18;;;;;;;6.28;1.45;;;;;;;21.05;39.63;99331.91;1609783;88;21013;-81
2022/05/27 10:15:45;;;;;;;2.25;1.35;;;;;;;21.13;39.36;99351.04;1641583;87;21049;-86
2022/05/27 10:18:21;;;;;;;1.75;1.45;;;;;;;21.19;39.10;99327.86;1658388;86;21252;-81
2022/05/27 10:21:00;;;;;;;4.17;1.92;;;;;;;21.25;38.94;99310.11;1640270;87;21035;-82
2022/05/27 10:23:31;;;;;;;5.17;1.55;;;;;;;21.34;39.14;99308.72;1649311;86;21319;-82
2022/05/27 10:25:57;;;;;;;4.85;1.60;;;;;;;21.47;37.97;99324.65;1639023;87;21036;-85
2022/05/27 10:28:30;;;;;;;4.83;2.47;;;;;;;21.53;37.78;99315.93;1639464;87;21076;-83
2022/05/27 10:31:02;;;;;;;3.85;2.33;;;;;;;21.52;37.64;99326.63;1634538;87;21083;-85
2022/05/27 10:33:42;;;;;;;4.65;2.40;;;;;;;21.47;37.68;99311.77;1578642;90;21032;-74
2022/05/27 10:36:44;;;;;;;6.15;1.50;;;;;;;21.40;37.90;99307.94;1594370;88;21016;-76
2022/05/27 10:39:34;;;;;;;7.00;1.25;;;;;;;21.44;37.63;99297.95;1602925;88;21537;-74
2022/05/27 10:42:36;;;;;;;4.50;1.50;;;;;;;21.50;37.66;99307.56;1628612;87;21013;-72
2022/05/27 10:45:26;;;;;;;2.12;1.80;;;;;;;21.66;37.60;99296.28;1618895;87;21033;-74
2022/05/27 10:48:27;;;;;;;3.98;1.30;;;;;;;21.80;37.31;99325.56;1600394;87;21044;-73
2022/05/27 10:51:23;;;;;;;3.83;1.37;;;;;;;21.84;37.28;99299.12;1609324;89;21194;-70
2022/05/27 10:54:01;;;;;;;4.12;1.50;;;;;;;21.92;36.73;99290.02;1593177;89;21082;-76
2022/05/27 11:02:33;;;;;;;2.00;1.30;;;;;;;21.84;36.63;99299.68;1569884;87;21599;-79
2022/05/27 11:05:19;;;;;;;4.28;1.32;;;;;;;21.81;36.83;99281.20;1645874;86;21769;-75
2022/05/27 11:08:08;;;;;;;2.00;1.45;;;;;;;21.80;36.81;99294.64;1639930;87;20928;-76
2022/05/27 11:10:52;;;;;;;4.22;1.27;;;;;;;21.73;37.03;99297.91;1613070;89;21158;-76
2022/05/27 11:17:01;;;;;;;5.97;2.22;;;;;;;21.64;37.32;99287.58;1604541;89;20968;-77
2022/05/27 11:19:56;;;;;;;3.62;1.30;;;;;;;21.57;37.64;99280.48;1586357;89;21191;-76
2022/05/27 11:23:03;;;;;;;5.20;1.50;;;;;;;21.57;37.82;99276.37;1610175;89;21057;-77
2022/05/27 11:25:47;;;;;;;6.92;1.50;;;;;;;21.60;38.03;99275.14;1639373;86;21021;-75
2022/05/27 11:28:41;;;;;;;1.47;1.32;;;;;;;21.63;38.29;99269.58;1635336;86;21003;-75
2022/05/27 11:31:25;;;;;;;1.27;1.17;;;;;;;21.59;38.37;99263.95;1531963;91;20999;-73
2022/05/27 11:34:09;;;;;;;3.27;1.70;;;;;;;21.58;38.45;99270.55;1640642;86;21130;-75
2022/05/27 11:36:44;;;;;;;4.37;1.42;;;;;;;21.57;38.73;99268.16;1646178;86;21536;-75
2022/05/27 11:39:47;;;;;;;6.12;1.98;;;;;;;21.55;38.89;99263.58;1637912;86;20944;-75
2022/05/27 11:42:31;;;;;;;1.70;1.37;;;;;;;21.56;39.04;99250.94;1640761;85;21538;-76
2022/05/27 11:45:08;;;;;;;4.45;1.80;;;;;;;21.57;39.20;99242.97;1614500;87;21055;-76
2022/05/27 11:48:01;;;;;;;4.05;1.47;;;;;;;21.68;39.26;99239.24;1615842;86;21210;-74
2022/05/27 11:51:00;;;;;;;4.95;1.57;;;;;;;21.80;39.10;99237.16;1609431;88;21576;-73
2022/05/27 11:53:55;;;;;;;4.87;1.25;;;;;;;21.97;38.95;99231.54;1650924;86;21011;-75
2022/05/27 11:56:57;;;;;;;1.87;1.50;;;;;;;22.11;38.70;99245.75;1635944;87;21757;-73
2022/05/27 11:59:36;;;;;;;4.42;1.40;;;;;;;22.25;38.72;99222.99;1636452;87;22238;-74
2022/05/27 12:02:29;;;;;;;3.30;1.90;;;;;;;22.42;38.42;99224.73;1638003;87;21154;-73
2022/05/27 12:05:10;;;;;;;6.97;1.60;;;;;;;22.64;37.70;99232.52;1641689;87;21030;-72
2022/05/27 12:08:12;;;;;;;2.17;1.52;;;;;;;22.73;37.44;99214.09;1609594;89;20967;-79
2022/05/27 12:10:47;;;;;;;2.95;1.72;;;;;;;22.76;37.66;99202.99;1594580;89;21104;-80
2022/05/27 12:13:40;;;;;;;8.38;1.82;;;;;;;22.77;37.67;99219.68;1642463;86;21089;-81
2022/05/27 12:16:19;;;;;;;5.72;1.95;;;;;;;22.82;37.55;99210.66;1639598;85;21270;-79
2022/05/27 12:18:51;;;;;;;2.98;2.00;;;;;;;22.84;37.79;99194.65;1660536;86;21050;-83
2022/05/27 12:21:21;;;;;;;2.70;2.40;;;;;;;22.89;37.83;99185.39;1637405;86;21067;-80
2022/05/27 12:23:58;;;;;;;4.00;1.98;;;;;;;22.92;37.60;99212.15;1652572;86;21230;-81
2022/05/27 12:26:32;;;;;;;2.27;1.82;;;;;;;22.83;37.74;99186.78;1653006;86;21075;-70
2022/05/27 12:29:00;;;;;;;3.75;1.72;;;;;;;22.75;37.96;99204.12;1649104;86;21856;-71
2022/05/27 12:31:27;;;;;;;2.83;1.70;;;;;;;22.65;38.42;99173.82;1642055;87;21122;-70
2022/05/27 12:33:54;;;;;;;6.45;3.67;;;;;;;22.59;38.70;99187.52;1633150;87;22202;-71
2022/05/27 12:36:27;;;;;;;4.45;1.82;;;;;;;22.53;39.02;99184.22;1636785;87;21317;-76
2022/05/27 12:38:57;;;;;;;7.92;2.40;;;;;;;22.44;39.04;99167.09;1641626;86;21058;-73